Friday, December 14, 2018, 7:25 PM EST
Back to Local

KLGA, New York La Guardia Airport

Location: Astoria, NY, United States Lat: 40.783
Local Time: 7:25 PM EST ( 0:25 GMT) Lon: -73.883
Time Zone: US/Eastern Elev: 22 ft

Show me the last for .
Show Decoded

2018-12-14 18:51 METAR KLGA 142351Z VRB03KT 10SM SCT009 BKN013 OVC075 11/08 A3033 RMK AO2 RAE41
                 SLP270 P0001 60001 T01060078 10111 20067 57003 =
2018-12-14 18:47 METAR KLGA 142347Z VRB03KT 10SM SCT009 BKN013 OVC075 11/08 A3033 RMK AO2 RAE41
                 P0001 =
2018-12-14 17:51 METAR KLGA 142251Z VRB05KT 10SM -RA SCT010 BKN016 OVC075 10/07 A3034 RMK AO2
                 RAE09B25 SLP272 P0000 T01000072 =
2018-12-14 17:46 METAR KLGA 142246Z 14006KT 10SM -RA SCT010 BKN016 OVC075 10/07 A3034 RMK AO2
                 RAE09B25 P0000 =
2018-12-14 16:51 METAR KLGA 142151Z VRB06KT 10SM -RA SCT014 BKN070 OVC095 11/07 A3035 RMK AO2
                 RAB40 SLP276 P0000 T01060072 =
2018-12-14 16:33 METAR KLGA 142133Z 14006KT 10SM BKN014 OVC070 10/07 A3036 RMK AO2 T01000067 =
2018-12-14 15:51 METAR KLGA 142051Z 15007KT 10SM FEW016 BKN036 OVC070 10/07 A3036 RMK AO2 SLP279
                 T01000067 58009 =
2018-12-14 15:34 METAR KLGA 142034Z 15008KT 10SM SCT016 BKN040 OVC070 10/07 A3035 RMK AO2
                 T01000067 =
2018-12-14 14:51 METAR KLGA 141951Z 06008KT 10SM BKN019 OVC025 07/04 A3038 RMK AO2 SLP285
                 T00670044 =
2018-12-14 13:51 METAR KLGA 141851Z 04008KT 10SM BKN019 OVC025 07/04 A3038 RMK AO2 SLP286
                 T00720039 =
2018-12-14 12:51 METAR KLGA 141751Z 03007KT 10SM OVC022 07/04 A3038 RMK AO2 SLP287 T00720039
                 10094 20056 56037 =
2018-12-14 11:51 METAR KLGA 141651Z 04009KT 10SM BKN022 OVC030 07/03 A3041 RMK AO2 SLP295
                 T00670033 =
2018-12-14 11:28 METAR KLGA 141628Z 05010KT 10SM BKN022 BKN030 OVC200 07/04 A3042 RMK AO2
                 T00720039 =
2018-12-14 10:51 METAR KLGA 141551Z 06008KT 10SM FEW027 OVC035 07/03 A3045 RMK AO2 SLP312
                 T00720033 =
2018-12-14 09:51 METAR KLGA 141451Z 09007KT 050V170 10SM OVC033 09/04 A3049 RMK AO2 SLP325
                 T00940039 51007 $ =
2018-12-14 08:51 METAR KLGA 141351Z 08007KT 060V120 10SM BKN033 OVC060 08/04 A3049 RMK AO2 SLP323
                 T00780039 $ =
2018-12-14 07:51 METAR KLGA 141251Z 10007KT 10SM OVC034 06/03 A3048 RMK AO2 SLP320 T00610028 $ =
2018-12-14 06:51 METAR KLGA 141151Z 09005KT 10SM FEW017 OVC035 06/03 A3047 RMK AO2 SLP317 70007
                 T00560028 10056 20044 55001 $ =
2018-12-14 06:05 METAR KLGA 141105Z 06008KT 10SM SCT018 OVC035 06/03 A3046 RMK AO2 T00560028 $ =
2018-12-14 05:51 METAR KLGA 141051Z 06007KT 10SM OVC018 06/03 A3045 RMK AO2 SLP312 T00560028 $ =
2018-12-14 04:51 METAR KLGA 140951Z 05008KT 10SM BKN018 BKN027 OVC033 05/03 A3046 RMK AO2 SLP313
                 T00500033 $ =
2018-12-14 03:51 METAR KLGA 140851Z 05007KT 10SM BKN021 OVC030 05/03 A3047 RMK AO2 SLP318
                 T00500033 57001 $ =
2018-12-14 02:51 METAR KLGA 140751Z 05008KT 10SM OVC016 05/03 A3047 RMK AO2 SLP319 T00500028 $ =
2018-12-14 01:51 METAR KLGA 140651Z 05010KT 10SM BKN016 OVC022 04/02 A3047 RMK AO2 SLP318
                 T00440022 $ =
2018-12-14 01:46 METAR KLGA 140646Z 06010KT 10SM BKN016 OVC022 04/02 A3047 RMK AO2 $ =
2018-12-14 00:51 METAR KLGA 140551Z 05010KT 10SM OVC014 04/03 A3047 RMK AO2 SLP319 60000
                 T00440028 10056 20039 58003 $ =
2018-12-14 00:35 METAR KLGA 140535Z 05011KT 10SM OVC014 04/03 A3047 RMK AO2 T00440028 $ =
2018-12-14 00:08 METAR KLGA 140508Z 05014KT 10SM BKN016 OVC033 04/02 A3048 RMK AO2 T00440022 $ =
2018-12-13 23:51 METAR KLGA 140451Z 06015KT 10SM BKN014 OVC033 04/02 A3048 RMK AO2 SLP321
                 T00440022 400560006 $ =
2018-12-13 22:51 METAR KLGA 140351Z 04009KT 10SM OVC012 04/03 A3049 RMK AO2 RAB00E15 SLP324 P0000
                 T00440028 $ =
2018-12-13 21:51 METAR KLGA 140251Z 04009KT 10SM FEW008 OVC012 06/03 A3048 RMK AO2 SLP321
                 T00560028 51007 $ =
2018-12-13 20:51 METAR KLGA 140151Z 04008KT 10SM FEW008 OVC014 05/03 A3047 RMK AO2 SLP319
                 T00500028 $ =
2018-12-13 19:51 METAR KLGA 140051Z 04012KT 10SM FEW008 BKN014 OVC020 05/03 A3048 RMK AO2 SLP320
                 T00500028 $ =

Support USWX by starting your Amazon purchase here.